createdAt,value
2022-11-20T00:00:42.869Z,931.34
2022-11-20T00:01:43.931Z,931.37
2022-11-20T00:02:44.480Z,931.36
2022-11-20T00:03:44.672Z,931.41
2022-11-20T00:04:45.595Z,931.4
2022-11-20T00:05:46.520Z,931.39
2022-11-20T00:06:47.435Z,931.43
2022-11-20T00:07:47.800Z,931.43
2022-11-20T00:08:48.390Z,931.45
2022-11-20T00:09:48.590Z,931.45
2022-11-20T00:10:49.079Z,931.48
2022-11-20T00:11:49.796Z,931.43
2022-11-20T00:12:50.009Z,931.43
2022-11-20T00:13:50.211Z,931.47
2022-11-20T00:14:50.411Z,931.44
2022-11-20T00:15:50.617Z,931.46
2022-11-20T00:16:50.831Z,931.43
2022-11-20T00:17:51.500Z,931.45
2022-11-20T00:18:52.165Z,931.44
2022-11-20T00:19:52.645Z,931.47
2022-11-20T00:20:53.608Z,931.51
2022-11-20T00:21:54.594Z,931.49
2022-11-20T00:22:55.236Z,931.49
2022-11-20T00:23:56.165Z,931.53
2022-11-20T00:24:57.074Z,931.53
2022-11-20T00:25:57.408Z,931.54
2022-11-20T00:26:57.607Z,931.56
2022-11-20T00:27:58.517Z,931.55
2022-11-20T00:28:59.450Z,931.55
2022-11-20T00:29:59.867Z,931.55
2022-11-20T00:31:00.505Z,931.57
2022-11-20T00:32:01.217Z,931.59
2022-11-20T00:33:01.706Z,931.59
2022-11-20T00:34:01.918Z,931.6
2022-11-20T00:35:02.836Z,931.57
2022-11-20T00:36:03.776Z,931.57
2022-11-20T00:37:04.716Z,931.57
2022-11-20T00:38:05.044Z,931.56
2022-11-20T00:39:05.536Z,931.59
2022-11-20T00:40:05.879Z,931.57
2022-11-20T00:41:06.496Z,931.56
2022-11-20T00:42:07.321Z,931.58
2022-11-20T00:43:08.234Z,931.59
2022-11-20T00:44:08.460Z,931.58
2022-11-20T00:45:09.384Z,931.65
2022-11-20T00:46:10.298Z,931.69
2022-11-20T00:47:10.502Z,931.67
2022-11-20T00:48:10.840Z,931.68
2022-11-20T00:49:11.452Z,931.69
2022-11-20T00:50:12.133Z,931.74
2022-11-20T00:51:13.076Z,931.81
2022-11-20T00:52:14.067Z,931.78
2022-11-20T00:53:14.222Z,931.77
2022-11-20T00:54:15.132Z,931.78
2022-11-20T00:55:15.749Z,931.75
2022-11-20T00:56:16.663Z,931.74
2022-11-20T00:57:17.643Z,931.8
2022-11-20T00:58:18.580Z,931.79
2022-11-20T00:59:19.285Z,931.79
2022-11-20T01:00:19.957Z,931.8
2022-11-20T01:01:20.951Z,931.83
2022-11-20T01:02:21.821Z,931.8
2022-11-20T01:03:26.749Z,931.82
2022-11-20T01:04:23.668Z,931.81
2022-11-20T01:05:24.282Z,931.8
2022-11-20T01:06:25.247Z,931.78
2022-11-20T01:07:25.929Z,931.79
2022-11-20T01:08:26.046Z,931.83
2022-11-20T01:09:26.524Z,931.84
2022-11-20T01:10:27.429Z,931.81
2022-11-20T01:11:28.465Z,931.86
2022-11-20T01:12:28.874Z,931.85
2022-11-20T01:13:29.086Z,931.83
2022-11-20T01:14:29.270Z,931.83
2022-11-20T01:15:29.880Z,931.83
2022-11-20T01:16:30.369Z,931.85
2022-11-20T01:17:30.582Z,931.85
2022-11-20T01:18:31.491Z,931.81
2022-11-20T01:19:31.678Z,931.92
2022-11-20T01:20:32.567Z,931.86
2022-11-20T01:21:33.466Z,931.85
2022-11-20T01:22:34.147Z,931.87
2022-11-20T01:23:35.036Z,931.84
2022-11-20T01:24:35.242Z,931.85
2022-11-20T01:25:35.875Z,931.84
2022-11-20T01:26:36.061Z,931.84
2022-11-20T01:27:36.961Z,931.87
2022-11-20T01:28:37.888Z,931.86
2022-11-20T01:29:38.778Z,931.88
2022-11-20T01:30:39.559Z,931.83
2022-11-20T01:31:39.747Z,931.83
2022-11-20T01:32:40.172Z,931.85
2022-11-20T01:33:40.361Z,931.82
2022-11-20T01:34:41.256Z,931.86
2022-11-20T01:35:41.439Z,931.82
2022-11-20T01:36:42.049Z,931.83
2022-11-20T01:37:42.270Z,931.84
2022-11-20T01:38:42.887Z,931.8
2022-11-20T01:39:43.818Z,931.81
2022-11-20T01:40:44.025Z,931.81
2022-11-20T01:41:44.512Z,931.8
2022-11-20T01:42:45.090Z,931.79
2022-11-20T01:43:45.999Z,931.79
2022-11-20T01:44:46.483Z,931.79
2022-11-20T01:45:47.425Z,931.8
2022-11-20T01:46:48.354Z,931.76
2022-11-20T01:47:49.270Z,931.75
2022-11-20T01:48:49.902Z,931.74
2022-11-20T01:49:50.838Z,931.78
2022-11-20T01:50:51.315Z,931.79
2022-11-20T01:51:51.508Z,931.77
2022-11-20T01:52:51.914Z,931.77
2022-11-20T01:53:52.235Z,931.79
2022-11-20T01:54:52.830Z,931.78
2022-11-20T01:55:53.738Z,931.77
2022-11-20T01:56:54.369Z,931.77
2022-11-20T01:57:54.578Z,931.78
2022-11-20T01:58:54.780Z,931.78
2022-11-20T01:59:55.369Z,931.79
2022-11-20T02:00:56.038Z,931.8
2022-11-20T02:01:56.885Z,931.84
2022-11-20T02:02:57.571Z,931.81
2022-11-20T02:03:58.199Z,931.8
2022-11-20T02:04:58.404Z,931.86
2022-11-20T02:05:59.017Z,931.83
2022-11-20T02:06:59.978Z,931.88
2022-11-20T02:08:00.839Z,931.85
2022-11-20T02:09:01.747Z,931.86
2022-11-20T02:10:02.834Z,931.86
2022-11-20T02:11:03.319Z,931.87
2022-11-20T02:12:04.244Z,931.86
2022-11-20T02:13:04.662Z,931.88
2022-11-20T02:14:05.261Z,931.88
2022-11-20T02:15:06.176Z,931.9
2022-11-20T02:16:07.180Z,931.89
2022-11-20T02:17:07.519Z,931.88
2022-11-20T02:18:08.138Z,931.87
2022-11-20T02:19:08.345Z,931.91
2022-11-20T02:20:08.566Z,931.93
2022-11-20T02:21:09.052Z,931.92
2022-11-20T02:22:09.396Z,931.94
2022-11-20T02:23:10.122Z,931.97
2022-11-20T02:24:10.610Z,931.97
2022-11-20T02:25:11.500Z,931.97
2022-11-20T02:26:12.117Z,931.98
2022-11-20T02:27:13.169Z,931.98
2022-11-20T02:28:13.965Z,931.98
2022-11-20T02:29:14.604Z,931.98
2022-11-20T02:30:14.839Z,932.01
2022-11-20T02:31:15.459Z,932.03
2022-11-20T02:32:16.072Z,931.99
2022-11-20T02:33:16.360Z,931.98
2022-11-20T02:34:17.265Z,931.98
2022-11-20T02:35:17.886Z,931.95
2022-11-20T02:36:18.795Z,931.99
2022-11-20T02:37:18.995Z,931.92
2022-11-20T02:38:19.896Z,931.91
2022-11-20T02:39:20.402Z,931.92
2022-11-20T02:40:21.192Z,931.9
2022-11-20T02:41:22.104Z,931.88
2022-11-20T02:42:22.314Z,931.87
2022-11-20T02:43:23.147Z,931.89
2022-11-20T02:44:24.058Z,931.87
2022-11-20T02:45:24.673Z,931.88
2022-11-20T02:46:25.022Z,931.82
2022-11-20T02:47:25.278Z,931.82
2022-11-20T02:48:27.436Z,931.8
2022-11-20T02:49:27.305Z,931.84
2022-11-20T02:50:28.187Z,931.81
2022-11-20T02:51:29.082Z,931.82
2022-11-20T02:52:29.731Z,931.82
2022-11-20T02:53:30.588Z,931.78
2022-11-20T02:54:31.222Z,931.82
2022-11-20T02:55:31.428Z,931.82
2022-11-20T02:56:32.062Z,931.82
2022-11-20T02:57:32.398Z,931.88
2022-11-20T02:58:33.293Z,931.79
2022-11-20T02:59:33.603Z,931.8
2022-11-20T03:00:34.083Z,931.78
2022-11-20T03:01:34.332Z,931.77
2022-11-20T03:02:34.572Z,931.75
2022-11-20T03:03:34.980Z,931.76
2022-11-20T03:04:35.611Z,931.72
2022-11-20T03:05:35.799Z,931.76
2022-11-20T03:06:36.715Z,931.78
2022-11-20T03:07:37.708Z,931.79
2022-11-20T03:08:37.795Z,931.78
2022-11-20T03:09:38.726Z,931.77
2022-11-20T03:10:39.353Z,931.77
2022-11-20T03:11:39.836Z,931.82
2022-11-20T03:12:40.747Z,931.83
2022-11-20T03:13:41.024Z,931.88
2022-11-20T03:14:41.565Z,931.88
2022-11-20T03:15:41.837Z,931.9
2022-11-20T03:16:42.751Z,931.86
2022-11-20T03:17:43.374Z,931.82
2022-11-20T03:18:43.862Z,931.81
2022-11-20T03:19:44.781Z,931.83
2022-11-20T03:20:45.683Z,931.82
2022-11-20T03:21:46.310Z,931.84
2022-11-20T03:22:47.222Z,931.85
2022-11-20T03:23:48.222Z,931.84
2022-11-20T03:24:48.426Z,931.77
2022-11-20T03:25:49.356Z,931.74
2022-11-20T03:26:49.560Z,931.8
2022-11-20T03:27:50.446Z,931.8
2022-11-20T03:28:51.364Z,931.78
2022-11-20T03:29:51.857Z,931.8
2022-11-20T03:30:52.060Z,931.82
2022-11-20T03:31:52.264Z,931.77
2022-11-20T03:32:53.190Z,931.78
2022-11-20T03:33:53.661Z,931.77
2022-11-20T03:34:53.847Z,931.74
2022-11-20T03:35:54.033Z,931.74
2022-11-20T03:36:54.272Z,931.73
2022-11-20T03:37:55.182Z,931.77
2022-11-20T03:38:56.094Z,931.8
2022-11-20T03:39:56.727Z,931.79
2022-11-20T03:40:57.664Z,931.76
2022-11-20T03:41:57.857Z,931.79
2022-11-20T03:42:58.048Z,931.83
2022-11-20T03:43:58.341Z,931.88
2022-11-20T03:44:58.950Z,931.88
2022-11-20T03:45:59.862Z,931.89
2022-11-20T03:47:00.752Z,931.86
2022-11-20T03:48:01.373Z,931.85
2022-11-20T03:49:01.569Z,931.86
2022-11-20T03:50:01.756Z,931.84
2022-11-20T03:51:02.368Z,931.93
2022-11-20T03:52:03.276Z,931.85
2022-11-20T03:53:04.188Z,931.87
2022-11-20T03:54:04.889Z,931.88
2022-11-20T03:55:05.365Z,931.93
2022-11-20T03:56:05.728Z,931.91
2022-11-20T03:57:06.648Z,931.94
2022-11-20T03:58:07.579Z,931.93
2022-11-20T03:59:08.468Z,931.89
2022-11-20T04:00:09.174Z,931.94
2022-11-20T04:01:09.829Z,931.97
2022-11-20T04:02:09.989Z,931.99
2022-11-20T04:03:10.270Z,932.05
2022-11-20T04:04:10.990Z,932.02
2022-11-20T04:05:11.480Z,931.95
2022-11-20T04:06:12.382Z,931.95
2022-11-20T04:07:13.035Z,931.98
2022-11-20T04:08:13.404Z,931.94
2022-11-20T04:09:14.303Z,931.95
2022-11-20T04:10:15.226Z,931.9
2022-11-20T04:11:16.137Z,931.85
2022-11-20T04:12:16.747Z,931.85
2022-11-20T04:13:17.368Z,931.87
2022-11-20T04:14:18.435Z,931.88
2022-11-20T04:15:19.044Z,931.89
2022-11-20T04:16:19.139Z,931.92
2022-11-20T04:17:19.627Z,931.88
2022-11-20T04:18:19.806Z,931.92
2022-11-20T04:19:20.793Z,931.9
2022-11-20T04:20:21.178Z,931.88
2022-11-20T04:21:22.068Z,931.94
2022-11-20T04:22:22.680Z,931.96
2022-11-20T04:23:27.411Z,931.95
2022-11-20T04:24:24.230Z,932
2022-11-20T04:25:24.432Z,931.97
2022-11-20T04:26:25.065Z,931.98
2022-11-20T04:27:25.683Z,931.98
2022-11-20T04:28:25.890Z,931.97
2022-11-20T04:29:26.075Z,932.01
2022-11-20T04:30:26.262Z,931.92
2022-11-20T04:31:26.467Z,931.94
2022-11-20T04:32:26.656Z,931.86
2022-11-20T04:33:28.967Z,931.87
2022-11-20T04:34:28.258Z,931.86
2022-11-20T04:35:28.577Z,931.88
2022-11-20T04:36:28.765Z,931.84
2022-11-20T04:37:29.395Z,931.83
2022-11-20T04:38:29.602Z,931.86
2022-11-20T04:39:30.528Z,931.79
2022-11-20T04:40:30.856Z,931.77
2022-11-20T04:41:31.185Z,931.8
2022-11-20T04:42:32.087Z,931.74
2022-11-20T04:43:32.415Z,931.75
2022-11-20T04:44:33.390Z,931.76
2022-11-20T04:45:34.313Z,931.74
2022-11-20T04:46:35.229Z,931.74
2022-11-20T04:47:35.572Z,931.78
2022-11-20T04:48:35.790Z,931.75
2022-11-20T04:49:36.333Z,931.71
2022-11-20T04:50:36.498Z,931.71
2022-11-20T04:51:37.134Z,931.73
2022-11-20T04:52:37.337Z,931.76
2022-11-20T04:53:38.253Z,931.71
2022-11-20T04:54:39.233Z,931.74
2022-11-20T04:55:40.143Z,931.78
2022-11-20T04:56:40.756Z,931.74
2022-11-20T04:57:41.673Z,931.78
2022-11-20T04:58:42.286Z,931.76
2022-11-20T04:59:42.932Z,931.75
2022-11-20T05:00:43.878Z,931.76
2022-11-20T05:01:44.136Z,931.78
2022-11-20T05:02:44.293Z,931.77
2022-11-20T05:03:44.901Z,931.76
2022-11-20T05:04:45.325Z,931.78
2022-11-20T05:05:45.807Z,931.82
2022-11-20T05:06:46.425Z,931.8
2022-11-20T05:07:46.880Z,931.77
2022-11-20T05:08:47.502Z,931.82
2022-11-20T05:09:47.990Z,931.85
2022-11-20T05:10:48.897Z,931.83
2022-11-20T05:11:51.564Z,931.85
2022-11-20T05:12:49.931Z,931.89
2022-11-20T05:13:50.345Z,931.89
2022-11-20T05:14:50.727Z,931.91
2022-11-20T05:15:51.128Z,931.88
2022-11-20T05:16:51.261Z,931.89
2022-11-20T05:17:51.503Z,931.87
2022-11-20T05:18:51.715Z,931.93
2022-11-20T05:19:53.265Z,931.91
2022-11-20T05:20:53.502Z,931.92
2022-11-20T05:21:53.690Z,931.9
2022-11-20T05:22:54.733Z,931.9
2022-11-20T05:23:55.036Z,931.9
2022-11-20T05:24:56.017Z,931.91
2022-11-20T05:25:59.050Z,931.92
2022-11-20T05:26:56.866Z,931.96
2022-11-20T05:27:57.463Z,931.95
2022-11-20T05:28:58.374Z,931.96
2022-11-20T05:29:59.281Z,931.96
2022-11-20T05:30:59.464Z,931.94
2022-11-20T05:32:00.097Z,931.95
2022-11-20T05:33:01.005Z,931.97
2022-11-20T05:34:01.646Z,931.96
2022-11-20T05:35:02.635Z,931.95
2022-11-20T05:36:03.524Z,931.97
2022-11-20T05:37:03.871Z,931.97
2022-11-20T05:38:04.503Z,931.99
2022-11-20T05:39:05.398Z,931.97
2022-11-20T05:40:05.623Z,932
2022-11-20T05:41:06.244Z,931.98
2022-11-20T05:42:07.136Z,932
2022-11-20T05:43:07.773Z,931.96
2022-11-20T05:44:08.686Z,932
2022-11-20T05:45:09.672Z,932.01
2022-11-20T05:46:10.602Z,932.02
2022-11-20T05:47:11.654Z,931.98
2022-11-20T05:48:12.135Z,932.02
2022-11-20T05:49:12.736Z,932.01
2022-11-20T05:50:13.176Z,932.02
2022-11-20T05:51:14.064Z,932.04
2022-11-20T05:52:14.675Z,931.99
2022-11-20T05:53:15.626Z,932.01
2022-11-20T05:54:15.926Z,931.97
2022-11-20T05:55:16.347Z,932.03
2022-11-20T05:56:16.959Z,931.97
2022-11-20T05:57:17.885Z,931.97
2022-11-20T05:58:18.367Z,932.05
2022-11-20T05:59:19.312Z,931.98
2022-11-20T06:00:19.300Z,931.99
2022-11-20T06:01:19.914Z,932.04
2022-11-20T06:02:20.867Z,932.03
2022-11-20T06:03:21.751Z,932.03
2022-11-20T06:04:22.368Z,932.1
2022-11-20T06:05:22.842Z,932.02
2022-11-20T06:06:23.181Z,932.07
2022-11-20T06:07:24.142Z,932.11
2022-11-20T06:08:24.375Z,932.12
2022-11-20T06:09:25.287Z,932.08
2022-11-20T06:10:25.503Z,932.09
2022-11-20T06:11:26.411Z,932.06
2022-11-20T06:12:26.616Z,932.09
2022-11-20T06:13:27.525Z,932.13
2022-11-20T06:14:28.582Z,932.13
2022-11-20T06:15:28.712Z,931.99
2022-11-20T06:16:29.122Z,932.12
2022-11-20T06:17:29.306Z,932.08
2022-11-20T06:18:29.914Z,932.1
2022-11-20T06:19:30.109Z,932.1
2022-11-20T06:20:30.723Z,932.08
2022-11-20T06:21:31.328Z,932.09
2022-11-20T06:22:31.521Z,932.1
2022-11-20T06:23:32.434Z,932.11
2022-11-20T06:24:32.760Z,932.09
2022-11-20T06:25:33.317Z,932.08
2022-11-20T06:26:34.232Z,932.07
2022-11-20T06:27:34.426Z,932.07
2022-11-20T06:28:35.342Z,932.08
2022-11-20T06:29:36.385Z,932.09
2022-11-20T06:30:36.998Z,932.09
2022-11-20T06:31:37.912Z,932.11
2022-11-20T06:32:38.241Z,932.18
2022-11-20T06:33:38.436Z,932.2
2022-11-20T06:34:39.049Z,932.17
2022-11-20T06:35:40.134Z,932.22
2022-11-20T06:36:40.265Z,932.24
2022-11-20T06:37:40.455Z,932.22
2022-11-20T06:38:40.787Z,932.26
2022-11-20T06:39:41.830Z,932.24
2022-11-20T06:40:42.451Z,932.25
2022-11-20T06:41:43.070Z,932.22
2022-11-20T06:42:43.816Z,932.24
2022-11-20T06:43:44.442Z,932.27
2022-11-20T06:44:45.053Z,932.23
2022-11-20T06:45:45.155Z,932.22
2022-11-20T06:46:45.367Z,932.28
2022-11-20T06:47:45.695Z,932.29
2022-11-20T06:48:46.603Z,932.32
2022-11-20T06:49:46.794Z,932.31
2022-11-20T06:50:47.416Z,932.3
2022-11-20T06:51:48.334Z,932.36
2022-11-20T06:52:49.160Z,932.33
2022-11-20T06:53:49.517Z,932.33
2022-11-20T06:54:50.413Z,932.3
2022-11-20T06:55:51.124Z,932.32
2022-11-20T06:56:51.733Z,932.3
2022-11-20T06:57:55.786Z,932.36
2022-11-20T06:58:53.395Z,932.42
2022-11-20T06:59:54.003Z,932.36
2022-11-20T07:00:54.242Z,932.39
2022-11-20T07:01:54.890Z,932.38
2022-11-20T07:02:55.507Z,932.41
2022-11-20T07:03:56.418Z,932.42
2022-11-20T07:04:57.046Z,932.43
2022-11-20T07:05:57.465Z,932.4
2022-11-20T07:06:58.422Z,932.45
2022-11-20T07:07:58.593Z,932.46
2022-11-20T07:08:59.489Z,932.46
2022-11-20T07:09:59.851Z,932.49
2022-11-20T07:11:00.335Z,932.47
2022-11-20T07:12:00.556Z,932.47
2022-11-20T07:13:00.816Z,932.52
2022-11-20T07:14:01.720Z,932.54
2022-11-20T07:15:02.654Z,932.57
2022-11-20T07:16:03.367Z,932.58
2022-11-20T07:17:04.300Z,932.61
2022-11-20T07:18:05.204Z,932.65
2022-11-20T07:19:05.417Z,932.65
2022-11-20T07:20:06.373Z,932.65
2022-11-20T07:21:06.559Z,932.61
2022-11-20T07:22:06.878Z,932.65
2022-11-20T07:23:07.801Z,932.67
2022-11-20T07:24:08.022Z,932.76
2022-11-20T07:25:09.002Z,932.73
2022-11-20T07:26:09.848Z,932.69
2022-11-20T07:27:10.734Z,932.75
2022-11-20T07:28:11.663Z,932.72
2022-11-20T07:29:11.854Z,932.74
2022-11-20T07:30:12.258Z,932.77
2022-11-20T07:31:17.531Z,932.78
2022-11-20T07:32:13.942Z,932.76
2022-11-20T07:33:14.149Z,932.77
2022-11-20T07:34:14.635Z,932.77
2022-11-20T07:35:14.844Z,932.79
2022-11-20T07:36:15.126Z,932.83
2022-11-20T07:37:15.336Z,932.86
2022-11-20T07:38:16.230Z,932.8
2022-11-20T07:39:16.443Z,932.75
2022-11-20T07:40:17.113Z,932.77
2022-11-20T07:41:17.552Z,932.79
2022-11-20T07:42:18.467Z,932.78
2022-11-20T07:43:18.668Z,932.73
2022-11-20T07:44:19.317Z,932.75
2022-11-20T07:45:19.801Z,932.76
2022-11-20T07:46:20.486Z,932.74
2022-11-20T07:47:21.326Z,932.73
2022-11-20T07:48:22.223Z,932.76
2022-11-20T07:49:22.568Z,932.76
2022-11-20T07:50:23.286Z,932.74
2022-11-20T07:51:24.207Z,932.75
2022-11-20T07:52:24.690Z,932.75
2022-11-20T07:53:24.878Z,932.78
2022-11-20T07:54:25.075Z,932.75
2022-11-20T07:55:25.266Z,932.78
2022-11-20T07:56:25.953Z,932.73
2022-11-20T07:57:28.402Z,932.74
2022-11-20T07:58:26.772Z,932.75
2022-11-20T07:59:27.689Z,932.75
2022-11-20T08:00:28.644Z,932.77
2022-11-20T08:01:29.162Z,932.83
2022-11-20T08:02:30.184Z,932.83
2022-11-20T08:03:30.804Z,932.82
2022-11-20T08:04:31.028Z,932.85
2022-11-20T08:05:31.229Z,932.83
2022-11-20T08:06:31.639Z,932.85
2022-11-20T08:07:31.838Z,932.82
2022-11-20T08:08:33.932Z,932.91
2022-11-20T08:09:32.938Z,932.9
2022-11-20T08:10:33.833Z,932.88
2022-11-20T08:11:34.456Z,932.9
2022-11-20T08:12:35.370Z,932.94
2022-11-20T08:13:36.314Z,932.97
2022-11-20T08:14:37.233Z,932.98
2022-11-20T08:15:37.444Z,932.99
2022-11-20T08:16:38.455Z,932.97
2022-11-20T08:17:39.101Z,932.96
2022-11-20T08:18:41.076Z,932.95
2022-11-20T08:19:41.298Z,932.93
2022-11-20T08:20:41.519Z,932.96
2022-11-20T08:21:41.721Z,932.93
2022-11-20T08:22:42.639Z,932.94
2022-11-20T08:23:42.850Z,932.93
2022-11-20T08:24:43.751Z,932.93
2022-11-20T08:25:44.081Z,932.88
2022-11-20T08:26:44.369Z,932.89
2022-11-20T08:27:45.290Z,932.92
2022-11-20T08:28:45.746Z,932.88
2022-11-20T08:29:46.687Z,932.88
2022-11-20T08:30:47.327Z,932.86
2022-11-20T08:31:47.955Z,932.89
2022-11-20T08:32:48.438Z,932.83
2022-11-20T08:33:49.074Z,932.9
2022-11-20T08:34:50.122Z,932.88
2022-11-20T08:35:50.728Z,932.89
2022-11-20T08:36:51.015Z,932.92
2022-11-20T08:37:51.514Z,932.91
2022-11-20T08:38:52.016Z,932.9
2022-11-20T08:39:52.938Z,932.91
2022-11-20T08:40:53.150Z,932.91
2022-11-20T08:41:54.044Z,932.92
2022-11-20T08:42:54.717Z,932.86
2022-11-20T08:43:55.368Z,932.87
2022-11-20T08:44:56.273Z,932.91
2022-11-20T08:45:57.196Z,932.93
2022-11-20T08:46:57.591Z,932.94
2022-11-20T08:47:58.508Z,932.96
2022-11-20T08:48:59.026Z,933.01
2022-11-20T08:49:59.367Z,932.96
2022-11-20T08:50:59.563Z,932.93
2022-11-20T08:52:00.497Z,932.99
2022-11-20T08:53:00.694Z,932.99
2022-11-20T08:54:00.794Z,933.06
2022-11-20T08:55:01.693Z,933.02
2022-11-20T08:56:01.886Z,933.04
2022-11-20T08:57:02.891Z,932.97
2022-11-20T08:58:03.379Z,932.92
2022-11-20T09:00:19.628Z,932.9
2022-11-20T09:01:19.966Z,932.88
2022-11-20T09:02:20.677Z,932.92
2022-11-20T09:03:21.783Z,932.81
2022-11-20T09:04:22.390Z,932.91
2022-11-20T09:05:22.585Z,932.85
2022-11-20T09:06:23.499Z,932.88
2022-11-20T09:07:24.124Z,932.89
2022-11-20T09:08:24.346Z,932.88
2022-11-20T09:09:25.500Z,932.9
2022-11-20T09:10:25.703Z,932.84
2022-11-20T09:11:25.923Z,932.87
2022-11-20T09:12:26.888Z,932.88
2022-11-20T09:13:27.216Z,932.82
2022-11-20T09:14:28.132Z,932.81
2022-11-20T09:15:29.039Z,932.77
2022-11-20T09:16:29.527Z,932.85
2022-11-20T09:17:30.087Z,932.79
2022-11-20T09:18:30.248Z,932.81
2022-11-20T09:19:37.740Z,932.79
2022-11-20T09:20:31.125Z,932.79
2022-11-20T09:21:31.410Z,932.8
2022-11-20T09:22:32.134Z,932.81
2022-11-20T09:23:32.777Z,932.82
2022-11-20T09:24:33.265Z,932.8
2022-11-20T09:25:34.205Z,932.8
2022-11-20T09:26:35.123Z,932.81
2022-11-20T09:27:35.555Z,932.8
2022-11-20T09:28:36.460Z,932.81
2022-11-20T09:29:37.459Z,932.83
2022-11-20T09:30:38.363Z,932.89
2022-11-20T09:31:39.279Z,932.87
2022-11-20T09:32:40.182Z,932.87
2022-11-20T09:33:40.798Z,932.87
2022-11-20T09:34:40.995Z,932.91
2022-11-20T09:35:41.640Z,932.89
2022-11-20T09:36:42.545Z,932.88
2022-11-20T09:37:43.216Z,932.88
2022-11-20T09:38:43.437Z,932.9
2022-11-20T09:39:43.970Z,932.88
2022-11-20T09:40:44.185Z,932.87
2022-11-20T09:41:44.783Z,932.84
2022-11-20T09:42:45.279Z,932.9
2022-11-20T09:43:45.493Z,932.8
2022-11-20T09:44:46.418Z,932.77
2022-11-20T09:45:47.077Z,932.81
2022-11-20T09:46:47.563Z,932.82
2022-11-20T09:47:47.987Z,932.86
2022-11-20T09:48:48.626Z,932.88
2022-11-20T09:49:49.539Z,932.91
2022-11-20T09:50:49.740Z,932.83
2022-11-20T09:51:49.936Z,932.81
2022-11-20T09:52:50.837Z,932.8
2022-11-20T09:53:51.737Z,932.82
2022-11-20T09:54:51.935Z,932.75
2022-11-20T09:55:52.128Z,932.73
2022-11-20T09:56:53.053Z,932.74
2022-11-20T09:57:53.350Z,932.75
2022-11-20T09:58:54.275Z,932.74
2022-11-20T09:59:54.918Z,932.71
2022-11-20T10:00:55.174Z,932.73
2022-11-20T10:01:55.706Z,932.77
2022-11-20T10:02:55.925Z,932.75
2022-11-20T10:03:56.657Z,932.8
2022-11-20T10:04:57.050Z,932.78
2022-11-20T10:05:57.695Z,932.75
2022-11-20T10:07:17.429Z,932.75
2022-11-20T10:08:18.214Z,932.7
2022-11-20T10:09:18.303Z,932.69
2022-11-20T10:10:19.270Z,932.68
2022-11-20T10:11:19.929Z,932.69
2022-11-20T10:12:20.158Z,932.69
2022-11-20T10:13:20.803Z,932.65
2022-11-20T10:14:21.733Z,932.6
2022-11-20T10:15:22.656Z,932.63
2022-11-20T10:16:23.013Z,932.66
2022-11-20T10:17:23.383Z,932.62
2022-11-20T10:18:24.088Z,932.69
2022-11-20T10:19:24.620Z,932.68
2022-11-20T10:20:24.653Z,932.64
2022-11-20T10:21:25.576Z,932.69
2022-11-20T10:22:25.911Z,932.59
2022-11-20T10:23:26.299Z,932.57
2022-11-20T10:24:26.521Z,932.57
2022-11-20T10:25:26.732Z,932.59
2022-11-20T10:26:27.641Z,932.61
2022-11-20T10:27:28.267Z,932.57
2022-11-20T10:28:29.283Z,932.62
2022-11-20T10:29:29.616Z,932.65
2022-11-20T10:30:29.838Z,932.58
2022-11-20T10:31:30.752Z,932.59
2022-11-20T10:32:31.687Z,932.6
2022-11-20T10:33:44.169Z,932.67
2022-11-20T10:34:32.778Z,932.66
2022-11-20T10:35:33.695Z,932.66
2022-11-20T10:36:34.633Z,932.67
2022-11-20T10:37:35.273Z,932.69
2022-11-20T10:38:36.018Z,932.7
2022-11-20T10:39:36.654Z,932.7
2022-11-20T10:40:37.597Z,932.67
2022-11-20T10:41:37.824Z,932.67
2022-11-20T10:42:38.740Z,932.6
2022-11-20T10:43:39.652Z,932.62
2022-11-20T10:44:40.288Z,932.62
2022-11-20T10:45:40.592Z,932.61
2022-11-20T10:46:41.091Z,932.59
2022-11-20T10:47:42.021Z,932.53
2022-11-20T10:48:42.772Z,932.52
2022-11-20T10:49:43.124Z,932.48
2022-11-20T10:50:43.779Z,932.51
2022-11-20T10:51:44.686Z,932.48
2022-11-20T10:52:45.339Z,932.52
2022-11-20T10:53:46.266Z,932.46
2022-11-20T10:54:47.201Z,932.46
2022-11-20T10:55:47.429Z,932.45
2022-11-20T10:56:50.066Z,932.42
2022-11-20T10:57:48.624Z,932.47
2022-11-20T10:58:49.369Z,932.47
2022-11-20T10:59:49.868Z,932.43
2022-11-20T11:00:50.566Z,932.43
2022-11-20T11:01:51.376Z,932.43
2022-11-20T11:02:52.372Z,932.41
2022-11-20T11:03:52.876Z,932.42
2022-11-20T11:04:53.562Z,932.39
2022-11-20T11:05:53.698Z,932.37
2022-11-20T11:06:54.193Z,932.37
2022-11-20T11:07:54.867Z,932.35
2022-11-20T11:08:55.371Z,932.34
2022-11-20T11:09:55.872Z,932.33
2022-11-20T11:10:56.084Z,932.34
2022-11-20T11:11:57.007Z,932.31
2022-11-20T11:12:57.115Z,932.26
2022-11-20T11:13:58.019Z,932.29
2022-11-20T11:14:58.712Z,932.31
2022-11-20T11:15:59.652Z,932.25
2022-11-20T11:16:59.858Z,932.26
2022-11-20T11:18:00.230Z,932.25
2022-11-20T11:19:01.234Z,932.29
2022-11-20T11:20:01.635Z,932.24
2022-11-20T11:21:02.263Z,932.23
2022-11-20T11:22:02.932Z,932.17
2022-11-20T11:23:03.851Z,932.17
2022-11-20T11:24:20.117Z,932.17
2022-11-20T11:25:05.214Z,932.22
2022-11-20T11:26:05.492Z,932.19
2022-11-20T11:27:05.717Z,932.17
2022-11-20T11:28:06.187Z,932.17
2022-11-20T11:29:06.405Z,932.18
2022-11-20T11:30:06.465Z,932.21
2022-11-20T11:31:07.512Z,932.16
2022-11-20T11:32:07.820Z,932.16
2022-11-20T11:33:08.090Z,932.12
2022-11-20T11:34:08.986Z,932.13
2022-11-20T11:35:09.906Z,932.08
2022-11-20T11:36:10.109Z,932.04
2022-11-20T11:37:11.006Z,932.06
2022-11-20T11:38:11.208Z,932.13
2022-11-20T11:39:11.930Z,932.08
2022-11-20T11:40:27.572Z,932.07
2022-11-20T11:41:12.330Z,932.08
2022-11-20T11:42:12.693Z,932.06
2022-11-20T11:43:13.599Z,932.06
2022-11-20T11:44:13.801Z,932.03
2022-11-20T11:45:14.429Z,932.04
2022-11-20T11:46:15.350Z,932.14
2022-11-20T11:47:15.634Z,932.06
2022-11-20T11:48:16.560Z,932.02
2022-11-20T11:49:17.255Z,932.03
2022-11-20T11:50:17.625Z,932.02
2022-11-20T11:51:18.043Z,932.05
2022-11-20T11:52:18.979Z,932
2022-11-20T11:53:19.902Z,932.02
2022-11-20T11:54:20.011Z,932.07
2022-11-20T11:55:20.937Z,931.99
2022-11-20T11:56:21.273Z,931.99
2022-11-20T11:57:22.047Z,932.13
2022-11-20T11:58:22.987Z,932.02
2022-11-20T11:59:24.081Z,932.07
2022-11-20T12:00:24.524Z,932.01
2022-11-20T12:01:25.138Z,932.03
2022-11-20T12:02:25.430Z,932.01
2022-11-20T12:03:25.705Z,932.09
2022-11-20T12:04:26.651Z,932.14
2022-11-20T12:05:27.380Z,932.09
2022-11-20T12:06:28.283Z,932.07
2022-11-20T12:07:45.882Z,932.01
2022-11-20T12:08:29.746Z,932.01
2022-11-20T12:09:30.819Z,931.96
2022-11-20T12:10:31.443Z,932.04
2022-11-20T12:11:32.367Z,932.07
2022-11-20T12:12:32.793Z,932.03
2022-11-20T12:13:33.719Z,931.94
2022-11-20T12:14:33.916Z,931.97
2022-11-20T12:15:34.545Z,932.1
2022-11-20T12:16:35.161Z,931.84
2022-11-20T12:17:35.361Z,932.02
2022-11-20T12:18:35.564Z,931.98
2022-11-20T12:19:35.945Z,931.96
2022-11-20T12:20:37.055Z,931.88
2022-11-20T12:21:36.963Z,931.88
2022-11-20T12:22:37.087Z,931.86
2022-11-20T12:23:37.440Z,931.88
2022-11-20T12:24:38.081Z,931.82
2022-11-20T12:25:39.178Z,931.86
2022-11-20T12:26:40.085Z,931.82
2022-11-20T12:27:40.706Z,931.79
2022-11-20T12:28:41.333Z,931.85
2022-11-20T12:29:42.208Z,931.79
2022-11-20T12:30:42.563Z,931.71
2022-11-20T12:31:42.771Z,931.75
2022-11-20T12:32:43.679Z,931.8
2022-11-20T12:33:44.348Z,931.77
2022-11-20T12:34:45.264Z,931.69
2022-11-20T12:35:45.918Z,931.75
2022-11-20T12:36:46.544Z,931.76
2022-11-20T12:37:47.182Z,931.79
2022-11-20T12:38:48.113Z,931.77
2022-11-20T12:39:48.853Z,931.78